Noroce — PB8777 — position and weather

sailwx.info

Track history (hours):
 
Tides and Currents Weather Stations Pressure Air Temp Water Temp Dewpoint Dewpoint Depression Visibility Wind Speed Wind Dir Waves Ship Positions

Noroce

Last reported at 2017-Sep-24 09:45 UTC. Time now 2017-Sep-24 10:39 UTC.
Position N 37°55' E 023°01'.

Length 15 m.

Type: Pleasure craft. MMSI: 244870814.

Date/timePositionNaut miles runAvg speedWind from/ knotsBaromVisibWave heightAir tempDewpointWater temp
2017-Sep-24 09:45N 37°55' E 023°01'1 3.6
2017-Sep-24 09:30N 37°54' E 023°01'3 5.9
2017-Sep-24 09:00N 37°53' E 023°05'3 6.4
2017-Sep-24 08:30N 37°54' E 023°09'11 6.2
2017-Sep-24 06:40N 37°57' E 023°23'1 6.2
2017-Sep-24 06:28N 37°57' E 023°24'3 6.4
2017-Sep-24 06:00N 37°57' E 023°28'1 2.4
2017-Sep-24 05:23N 37°58' E 023°30'0 0.0
2017-Sep-24 04:59N 37°58' E 023°30'0 0.0
2017-Sep-24 04:26N 37°58' E 023°30'0 0.0
2017-Sep-24 03:56N 37°58' E 023°30'0 0.0
2017-Sep-24 03:26N 37°58' E 023°30'0 0.0
2017-Sep-24 02:56N 37°58' E 023°30'0 0.0
2017-Sep-24 02:26N 37°58' E 023°30'0 0.0
2017-Sep-24 01:50N 37°58' E 023°30'0 0.0
2017-Sep-24 01:26N 37°58' E 023°30'0 0.0
2017-Sep-24 00:56N 37°58' E 023°30'0 0.0
2017-Sep-24 00:14N 37°58' E 023°30'0 0.0
2017-Sep-23 23:56N 37°58' E 023°30'0 0.0
2017-Sep-23 23:26N 37°58' E 023°30'0 0.0
2017-Sep-23 22:38N 37°58' E 023°30'0 0.0
2017-Sep-23 22:26N 37°58' E 023°30'0 0.0
2017-Sep-23 21:56N 37°58' E 023°30'0 0.0
2017-Sep-23 21:29N 37°58' E 023°30'0 0.0
2017-Sep-23 20:59N 37°58' E 023°30'0 0.0
2017-Sep-23 20:26N 37°58' E 023°30'0 0.0
2017-Sep-23 19:44N 37°58' E 023°30'0 0.0
2017-Sep-22 01:14N 37°58' E 023°30'0 0.0
2017-Sep-22 00:56N 37°58' E 023°30'0 0.0
2017-Sep-22 00:29N 37°58' E 023°30'0 0.0
2017-Sep-21 23:47N 37°58' E 023°30'0 0.0
2017-Sep-21 23:29N 37°58' E 023°30'0 0.0
2017-Sep-21 22:50N 37°58' E 023°30'0 0.0
2017-Sep-21 22:29N 37°58' E 023°30'0 0.0
2017-Sep-21 21:56N 37°58' E 023°30'0 0.0
2017-Sep-21 21:29N 37°58' E 023°30'0 0.0
2017-Sep-21 20:59N 37°58' E 023°30'0 0.0
2017-Sep-21 20:29N 37°58' E 023°30'0 0.0
2017-Sep-21 19:59N 37°58' E 023°30'0 0.0
2017-Sep-21 19:29N 37°58' E 023°30'0 0.0
2017-Sep-21 18:59N 37°58' E 023°30'0 0.0
2017-Sep-21 18:29N 37°58' E 023°30'0 0.0
2017-Sep-21 17:59N 37°58' E 023°30'0 0.0
2017-Sep-21 17:29N 37°58' E 023°30'0 0.0
2017-Sep-21 16:56N 37°58' E 023°30'0 0.0
2017-Sep-21 16:29N 37°58' E 023°30'0 0.0
2017-Sep-21 15:59N 37°58' E 023°30'0 0.0
2017-Sep-21 15:29N 37°58' E 023°30'0 0.0
2017-Sep-21 14:59N 37°58' E 023°30'0 0.0
2017-Sep-21 14:23N 37°58' E 023°30'0 0.0
2017-Sep-21 13:59N 37°58' E 023°30'0 0.0
2017-Sep-21 13:29N 37°58' E 023°30'0 0.0
2017-Sep-21 12:59N 37°58' E 023°30'0 0.0
2017-Sep-21 12:29N 37°58' E 023°30'0 0.0
2017-Sep-21 11:53N 37°58' E 023°30'0 0.0
2017-Sep-21 11:26N 37°58' E 023°30'0 0.0
2017-Sep-21 10:50N 37°58' E 023°30'0 0.0
2017-Sep-21 10:29N 37°58' E 023°30'0 0.0
2017-Sep-21 09:59N 37°58' E 023°30'0 0.0
2017-Sep-21 09:29N 37°58' E 023°30'0 0.0
2017-Sep-21 08:59N 37°58' E 023°30'0 0.0
2017-Sep-21 08:29N 37°58' E 023°30'0 0.0
2017-Sep-21 07:56N 37°58' E 023°30'0 0.0
2017-Sep-21 07:26N 37°58' E 023°30'0 0.0
2017-Sep-21 06:47N 37°58' E 023°30'0 0.0
2017-Sep-21 06:29N 37°58' E 023°30'0 0.0
2017-Sep-21 05:53N 37°58' E 023°30'0 0.0
2017-Sep-21 05:29N 37°58' E 023°30'0 0.0
2017-Sep-21 03:59N 37°58' E 023°30'0 0.0
2017-Sep-21 03:23N 37°58' E 023°30'0 0.0
2017-Sep-21 02:53N 37°58' E 023°30'0 0.0
2017-Sep-21 02:23N 37°58' E 023°30'0 0.0
2017-Sep-21 01:59N 37°58' E 023°30'0 0.0
2017-Sep-21 01:29N 37°58' E 023°30'0 0.0
2017-Sep-21 00:59N 37°58' E 023°30'0 0.0
2017-Sep-21 00:29N 37°58' E 023°30'0 0.0
2017-Sep-20 23:59N 37°58' E 023°30'0 0.0
2017-Sep-20 23:29N 37°58' E 023°30'0 0.0
2017-Sep-20 22:59N 37°58' E 023°30'0 0.0
2017-Sep-20 22:29N 37°58' E 023°30'0 0.0
2017-Sep-20 21:59N 37°58' E 023°30'0 0.0
2017-Sep-20 21:29N 37°58' E 023°30'0 0.0
2017-Sep-20 20:59N 37°58' E 023°30'0 0.0
2017-Sep-20 20:29N 37°58' E 023°30'0 0.0
2017-Sep-20 19:59N 37°58' E 023°30'0 0.0
2017-Sep-20 19:23N 37°58' E 023°30'0 0.0
2017-Sep-20 18:59N 37°58' E 023°30'0 0.0
2017-Sep-20 18:17N 37°58' E 023°30'0 0.0
2017-Sep-20 17:59N 37°58' E 023°30'0 0.0
2017-Sep-20 17:29N 37°58' E 023°30'0 0.0
2017-Sep-20 16:59N 37°58' E 023°30'0 0.0
2017-Sep-20 16:11N 37°58' E 023°30'0 0.0
2017-Sep-20 15:47N 37°58' E 023°30'0 0.0
2017-Sep-20 15:23N 37°58' E 023°30'0 0.0
2017-Sep-20 14:53N 37°58' E 023°30'0 0.0
2017-Sep-20 13:56N 37°58' E 023°30'0 0.0
2017-Sep-20 13:26N 37°58' E 023°30'0 0.0
2017-Sep-20 12:56N 37°58' E 023°30'0 0.0
2017-Sep-20 12:29N 37°58' E 023°30'0 0.0
2017-Sep-20 11:59N 37°58' E 023°30'0 0.0
2017-Sep-20 11:26N 37°58' E 023°30'0 0.0
2017-Sep-20 10:56N 37°58' E 023°30'0 0.0
2017-Sep-20 10:26N 37°58' E 023°30'0 0.0
2017-Sep-20 09:50N 37°58' E 023°30'0 0.0
2017-Sep-20 08:29N 37°58' E 023°30'0 0.0
2017-Sep-20 07:53N 37°58' E 023°30'0 0.0
2017-Sep-20 07:29N 37°58' E 023°30'0 0.0
2017-Sep-20 06:59N 37°58' E 023°30'0 0.0
2017-Sep-20 06:23N 37°58' E 023°30'0 0.0
2017-Sep-20 04:08N 37°58' E 023°30'0 0.0
2017-Sep-20 03:56N 37°58' E 023°30'0 0.0
2017-Sep-20 01:44N 37°58' E 023°30'0 0.0
2017-Sep-20 01:26N 37°58' E 023°30'0 0.0
2017-Sep-20 00:56N 37°58' E 023°30'0 0.0
2017-Sep-20 00:26N 37°58' E 023°30'0 0.0
2017-Sep-20 00:00N 37°58' E 023°30'0 0.0
2017-Sep-19 23:30N 37°58' E 023°30'0 0.0
2017-Sep-19 23:00N 37°58' E 023°30'0 0.0
2017-Sep-19 22:30N 37°58' E 023°30'0 0.0
2017-Sep-19 22:00N 37°58' E 023°30'0 0.0
2017-Sep-19 21:30N 37°58' E 023°30'0 0.0
2017-Sep-19 20:54N 37°58' E 023°30'0 0.0
2017-Sep-19 20:30N 37°58' E 023°30'0 0.0
2017-Sep-19 20:00N 37°58' E 023°30'0 0.0
2017-Sep-19 19:24N 37°58' E 023°30'0 0.0
2017-Sep-19 19:00N 37°58' E 023°30'0 0.0
2017-Sep-19 18:30N 37°58' E 023°30'0 0.0
2017-Sep-19 18:00N 37°58' E 023°30'0 0.0
2017-Sep-19 17:30N 37°58' E 023°30'0 0.0
2017-Sep-19 17:00N 37°58' E 023°30'0 0.0
2017-Sep-19 16:30N 37°58' E 023°30'0 0.0
2017-Sep-19 16:00N 37°58' E 023°30'0 0.0
2017-Sep-19 15:30N 37°58' E 023°30'0 0.0
2017-Sep-19 15:00N 37°58' E 023°30'0 0.0
2017-Sep-19 14:30N 37°58' E 023°30'0 0.0
2017-Sep-19 13:54N 37°58' E 023°30'0 0.0
2017-Sep-19 13:27N 37°58' E 023°30'0 0.0
2017-Sep-19 13:00N 37°58' E 023°30'0 0.0
2017-Sep-19 12:30N 37°58' E 023°30'0 0.0
2017-Sep-19 12:00N 37°58' E 023°30'0 0.0
2017-Sep-19 11:30N 37°58' E 023°30'0 0.0
2017-Sep-19 10:51N 37°58' E 023°30'0 0.0
2017-Sep-19 10:24N 37°58' E 023°30'0 0.0
2017-Sep-19 09:57N 37°58' E 023°30'0 0.0
2017-Sep-19 09:21N 37°58' E 023°30'0 0.0
2017-Sep-19 08:51N 37°58' E 023°30'0 0.0
2017-Sep-19 08:30N 37°58' E 023°30'0 0.0
2017-Sep-19 06:54N 37°58' E 023°30'0 0.0
2017-Sep-19 06:27N 37°58' E 023°30'0 0.0
2017-Sep-19 05:21N 37°58' E 023°30'0 0.0
2017-Sep-19 04:57N 37°58' E 023°30'0 0.0
2017-Sep-19 04:21N 37°58' E 023°30'0 0.0
2017-Sep-19 03:45N 37°58' E 023°30'0 0.0
2017-Sep-19 03:15N 37°58' E 023°30'0 0.0
2017-Sep-19 02:57N 37°58' E 023°30'0 0.0
2017-Sep-19 02:27N 37°58' E 023°30'0 0.0
2017-Sep-19 01:27N 37°58' E 023°30'0 0.0
2017-Sep-19 00:57N 37°58' E 023°30'0 0.0
2017-Sep-19 00:30N 37°58' E 023°30'0 0.0
2017-Sep-19 00:00N 37°58' E 023°30'0 0.0
2017-Sep-18 23:24N 37°58' E 023°30'0 0.0
2017-Sep-18 23:00N 37°58' E 023°30'0 0.0
2017-Sep-18 22:30N 37°58' E 023°30'0 0.0
2017-Sep-18 21:51N 37°58' E 023°30'0 0.0
2017-Sep-18 21:30N 37°58' E 023°30'0 0.0
2017-Sep-18 21:00N 37°58' E 023°30'0 0.0
2017-Sep-18 20:30N 37°58' E 023°30'0 0.0
2017-Sep-18 20:00N 37°58' E 023°30'0 0.0
2017-Sep-18 19:24N 37°58' E 023°30'0 0.0
2017-Sep-18 19:00N 37°58' E 023°30'0 0.0
2017-Sep-18 18:30N 37°58' E 023°30'0 0.0
2017-Sep-18 17:57N 37°58' E 023°30'0 0.0
2017-Sep-18 17:30N 37°58' E 023°30'0 0.0
2017-Sep-18 17:00N 37°58' E 023°30'0 0.0
2017-Sep-18 16:30N 37°58' E 023°30'0 0.0
2017-Sep-18 16:00N 37°58' E 023°30'0 0.0
2017-Sep-18 15:21N 37°58' E 023°30'0 0.0
2017-Sep-18 15:00N 37°58' E 023°30'0 0.0
2017-Sep-18 14:30N 37°58' E 023°30'0 0.0
2017-Sep-18 14:00N 37°58' E 023°30'0 0.0
2017-Sep-18 13:30N 37°58' E 023°30'0 0.0
2017-Sep-18 13:00N 37°58' E 023°30'0 0.0
2017-Sep-18 12:30N 37°58' E 023°30'0 0.0
2017-Sep-18 11:54N 37°58' E 023°30'0 0.0
2017-Sep-18 11:21N 37°58' E 023°30'0 0.0
2017-Sep-18 11:00N 37°58' E 023°30'0 0.0
2017-Sep-18 10:30N 37°58' E 023°30'0 0.0
2017-Sep-18 09:58N 37°58' E 023°30'0 0.8
2017-Sep-18 09:30N 37°57' E 023°29'0 0.1
2017-Sep-18 06:05N 37°58' E 023°30'0 0.0
2017-Sep-18 05:47N 37°58' E 023°30'0 0.0
2017-Sep-18 05:23N 37°58' E 023°30'0 0.0
2017-Sep-18 04:23N 37°58' E 023°30'0 0.0
2017-Sep-18 03:59N 37°58' E 023°30'0 0.0
2017-Sep-18 03:29N 37°58' E 023°30'0 0.0
2017-Sep-18 02:59N 37°58' E 023°30'0 0.0
2017-Sep-18 02:29N 37°58' E 023°30'0 0.0
2017-Sep-18 01:59N 37°58' E 023°30'0 0.0
2017-Sep-18 01:23N 37°58' E 023°30'0 0.0
2017-Sep-18 00:59N 37°58' E 023°30'0 0.0
2017-Sep-18 00:29N 37°58' E 023°30'0 0.0
2017-Sep-17 23:59N 37°58' E 023°30'0 0.0
2017-Sep-17 19:17N 37°58' E 023°30'0 0.0
2017-Sep-17 18:53N 37°58' E 023°30'0 0.0
2017-Sep-17 18:23N 37°58' E 023°30'0 0.0
2017-Sep-17 17:59N 37°58' E 023°30'0 0.0
2017-Sep-17 13:53N 37°58' E 023°30'0 0.0
2017-Sep-16 17:35N 37°58' E 023°30'0 0.0
2017-Sep-16 17:14N 37°58' E 023°30'0 0.0
2017-Sep-16 05:35N 37°58' E 023°30'0 0.0
2017-Sep-16 05:26N 37°58' E 023°30'0 0.0
2017-Sep-16 01:41N 37°58' E 023°30'0 0.0
2017-Sep-16 01:26N 37°58' E 023°30'0 0.0
2017-Sep-16 00:59N 37°58' E 023°30'0 0.0
2017-Sep-16 00:29N 37°58' E 023°30'0 0.0
2017-Sep-15 23:59N 37°58' E 023°30'0 0.0
2017-Sep-15 17:08N 37°58' E 023°30'0 0.0
2017-Sep-15 16:53N 37°58' E 023°30'0 0.0
2017-Sep-15 15:50N 37°58' E 023°30'0 0.0
2017-Sep-15 15:26N 37°58' E 023°30'0 0.0
2017-Sep-15 14:56N 37°58' E 023°30'0 0.0
2017-Sep-15 14:26N 37°58' E 023°30'0 0.0
2017-Sep-15 12:35N 37°58' E 023°30'0 0.0
2017-Sep-15 11:23N 37°58' E 023°30'0 0.0
2017-Sep-15 10:59N 37°58' E 023°30'0 0.0
2017-Sep-15 10:17N 37°58' E 023°30'0 0.0
2017-Sep-15 09:53N 37°58' E 023°30'0 0.0
2017-Sep-15 08:35N 37°58' E 023°30'0 0.0
2017-Sep-15 08:29N 37°58' E 023°30'0 0.0
2017-Sep-15 07:59N 37°58' E 023°30'0 0.0
2017-Sep-15 07:26N 37°58' E 023°30'0 0.0
2017-Sep-15 06:59N 37°58' E 023°30'0 0.0
2017-Sep-15 06:20N 37°58' E 023°30'0 0.0
2017-Sep-15 05:59N 37°58' E 023°30'0 0.0
2017-Sep-15 05:23N 37°58' E 023°30'0 0.0
2017-Sep-15 04:14N 37°58' E 023°30'0 0.0
2017-Sep-15 03:59N 37°58' E 023°30'0 0.0
2017-Sep-15 03:23N 37°58' E 023°30'0 0.0
2017-Sep-15 02:59N 37°58' E 023°30'0 0.0
2017-Sep-15 02:29N 37°58' E 023°30'0 0.0
2017-Sep-15 01:59N 37°58' E 023°30'0 0.0
2017-Sep-15 01:29N 37°58' E 023°30'0 0.0
2017-Sep-15 00:53N 37°58' E 023°30'0 0.0
2017-Sep-15 00:26N 37°58' E 023°30'0 0.0
2017-Sep-14 23:44N 37°58' E 023°30'0 0.0
2017-Sep-14 23:23N 37°58' E 023°30'0 0.0
2017-Sep-14 22:56N 37°58' E 023°30'0 0.0
2017-Sep-14 22:23N 37°58' E 023°30'0 0.0
2017-Sep-14 21:53N 37°58' E 023°30'0 0.0
2017-Sep-14 21:20N 37°58' E 023°30'0 0.0
2017-Sep-14 20:50N 37°58' E 023°30'0 0.0
2017-Sep-14 20:29N 37°58' E 023°30'0 0.0
2017-Sep-14 19:53N 37°58' E 023°30'0 0.0
2017-Sep-14 19:29N 37°58' E 023°30'0 0.0
2017-Sep-14 18:38N 37°58' E 023°30'0 0.0
2017-Sep-14 18:29N 37°58' E 023°30'0 0.0
2017-Sep-14 17:59N 37°58' E 023°30'0 0.0
2017-Sep-14 17:02N 37°58' E 023°30'0 0.0
2017-Sep-14 16:44N 37°58' E 023°30'0 0.0
2017-Sep-14 16:23N 37°58' E 023°30'0 0.0
2017-Sep-14 15:56N 37°58' E 023°30'0 0.0
2017-Sep-14 15:05N 37°58' E 023°30'0 0.0
2017-Sep-14 14:53N 37°58' E 023°30'0 0.0
2017-Sep-14 14:17N 37°58' E 023°30'0 0.0
2017-Sep-14 13:59N 37°58' E 023°30'0 0.0
2017-Sep-14 13:23N 37°58' E 023°30'0 0.0
2017-Sep-14 12:59N 37°58' E 023°30'0 0.0
2017-Sep-14 12:26N 37°58' E 023°30'0 0.0
2017-Sep-14 11:35N 37°58' E 023°30'0 0.0
2017-Sep-14 10:47N 37°58' E 023°30'0 0.0
2017-Sep-14 10:23N 37°58' E 023°30'0 0.0
2017-Sep-14 09:59N 37°58' E 023°30'  
Track history (hours):
 
Tides and Currents Weather Stations Pressure Air Temp Water Temp Dewpoint Dewpoint Depression Visibility Wind Speed Wind Dir Waves Ship Positions

Noroce

Last reported at 2017-Sep-24 09:45 UTC. Time now 2017-Sep-24 10:39 UTC.
Position N 37°55' E 023°01'.

Length 15 m.

Type: Pleasure craft. MMSI: 244870814.

Date/timePositionNaut miles runAvg speedWind from/ knotsBaromVisibWave heightAir tempDewpointWater temp
2017-Sep-24 09:45N 37°55' E 023°01'1 3.6
2017-Sep-24 09:30N 37°54' E 023°01'3 5.9
2017-Sep-24 09:00N 37°53' E 023°05'3 6.4
2017-Sep-24 08:30N 37°54' E 023°09'11 6.2
2017-Sep-24 06:40N 37°57' E 023°23'1 6.2
2017-Sep-24 06:28N 37°57' E 023°24'3 6.4
2017-Sep-24 06:00N 37°57' E 023°28'1 2.4
2017-Sep-24 05:23N 37°58' E 023°30'0 0.0
2017-Sep-24 04:59N 37°58' E 023°30'0 0.0
2017-Sep-24 04:26N 37°58' E 023°30'0 0.0
2017-Sep-24 03:56N 37°58' E 023°30'0 0.0
2017-Sep-24 03:26N 37°58' E 023°30'0 0.0
2017-Sep-24 02:56N 37°58' E 023°30'0 0.0
2017-Sep-24 02:26N 37°58' E 023°30'0 0.0
2017-Sep-24 01:50N 37°58' E 023°30'0 0.0
2017-Sep-24 01:26N 37°58' E 023°30'0 0.0
2017-Sep-24 00:56N 37°58' E 023°30'0 0.0
2017-Sep-24 00:14N 37°58' E 023°30'0 0.0
2017-Sep-23 23:56N 37°58' E 023°30'0 0.0
2017-Sep-23 23:26N 37°58' E 023°30'0 0.0
2017-Sep-23 22:38N 37°58' E 023°30'0 0.0
2017-Sep-23 22:26N 37°58' E 023°30'0 0.0
2017-Sep-23 21:56N 37°58' E 023°30'0 0.0
2017-Sep-23 21:29N 37°58' E 023°30'0 0.0
2017-Sep-23 20:59N 37°58' E 023°30'0 0.0
2017-Sep-23 20:26N 37°58' E 023°30'0 0.0
2017-Sep-23 19:44N 37°58' E 023°30'0 0.0
2017-Sep-22 01:14N 37°58' E 023°30'0 0.0
2017-Sep-22 00:56N 37°58' E 023°30'0 0.0
2017-Sep-22 00:29N 37°58' E 023°30'0 0.0
2017-Sep-21 23:47N 37°58' E 023°30'0 0.0
2017-Sep-21 23:29N 37°58' E 023°30'0 0.0
2017-Sep-21 22:50N 37°58' E 023°30'0 0.0
2017-Sep-21 22:29N 37°58' E 023°30'0 0.0
2017-Sep-21 21:56N 37°58' E 023°30'0 0.0
2017-Sep-21 21:29N 37°58' E 023°30'0 0.0
2017-Sep-21 20:59N 37°58' E 023°30'0 0.0
2017-Sep-21 20:29N 37°58' E 023°30'0 0.0
2017-Sep-21 19:59N 37°58' E 023°30'0 0.0
2017-Sep-21 19:29N 37°58' E 023°30'0 0.0
2017-Sep-21 18:59N 37°58' E 023°30'0 0.0
2017-Sep-21 18:29N 37°58' E 023°30'0 0.0
2017-Sep-21 17:59N 37°58' E 023°30'0 0.0
2017-Sep-21 17:29N 37°58' E 023°30'0 0.0
2017-Sep-21 16:56N 37°58' E 023°30'0 0.0
2017-Sep-21 16:29N 37°58' E 023°30'0 0.0
2017-Sep-21 15:59N 37°58' E 023°30'0 0.0
2017-Sep-21 15:29N 37°58' E 023°30'0 0.0
2017-Sep-21 14:59N 37°58' E 023°30'0 0.0
2017-Sep-21 14:23N 37°58' E 023°30'0 0.0
2017-Sep-21 13:59N 37°58' E 023°30'0 0.0
2017-Sep-21 13:29N 37°58' E 023°30'0 0.0
2017-Sep-21 12:59N 37°58' E 023°30'0 0.0
2017-Sep-21 12:29N 37°58' E 023°30'0 0.0
2017-Sep-21 11:53N 37°58' E 023°30'0 0.0
2017-Sep-21 11:26N 37°58' E 023°30'0 0.0
2017-Sep-21 10:50N 37°58' E 023°30'0 0.0
2017-Sep-21 10:29N 37°58' E 023°30'0 0.0
2017-Sep-21 09:59N 37°58' E 023°30'0 0.0
2017-Sep-21 09:29N 37°58' E 023°30'0 0.0
2017-Sep-21 08:59N 37°58' E 023°30'0 0.0
2017-Sep-21 08:29N 37°58' E 023°30'0 0.0
2017-Sep-21 07:56N 37°58' E 023°30'0 0.0
2017-Sep-21 07:26N 37°58' E 023°30'0 0.0
2017-Sep-21 06:47N 37°58' E 023°30'0 0.0
2017-Sep-21 06:29N 37°58' E 023°30'0 0.0
2017-Sep-21 05:53N 37°58' E 023°30'0 0.0
2017-Sep-21 05:29N 37°58' E 023°30'0 0.0
2017-Sep-21 03:59N 37°58' E 023°30'0 0.0
2017-Sep-21 03:23N 37°58' E 023°30'0 0.0
2017-Sep-21 02:53N 37°58' E 023°30'0 0.0
2017-Sep-21 02:23N 37°58' E 023°30'0 0.0
2017-Sep-21 01:59N 37°58' E 023°30'0 0.0
2017-Sep-21 01:29N 37°58' E 023°30'0 0.0
2017-Sep-21 00:59N 37°58' E 023°30'0 0.0
2017-Sep-21 00:29N 37°58' E 023°30'0 0.0
2017-Sep-20 23:59N 37°58' E 023°30'0 0.0
2017-Sep-20 23:29N 37°58' E 023°30'0 0.0
2017-Sep-20 22:59N 37°58' E 023°30'0 0.0
2017-Sep-20 22:29N 37°58' E 023°30'0 0.0
2017-Sep-20 21:59N 37°58' E 023°30'0 0.0
2017-Sep-20 21:29N 37°58' E 023°30'0 0.0
2017-Sep-20 20:59N 37°58' E 023°30'0 0.0
2017-Sep-20 20:29N 37°58' E 023°30'0 0.0
2017-Sep-20 19:59N 37°58' E 023°30'0 0.0
2017-Sep-20 19:23N 37°58' E 023°30'0 0.0
2017-Sep-20 18:59N 37°58' E 023°30'0 0.0
2017-Sep-20 18:17N 37°58' E 023°30'0 0.0
2017-Sep-20 17:59N 37°58' E 023°30'0 0.0
2017-Sep-20 17:29N 37°58' E 023°30'0 0.0
2017-Sep-20 16:59N 37°58' E 023°30'0 0.0
2017-Sep-20 16:11N 37°58' E 023°30'0 0.0
2017-Sep-20 15:47N 37°58' E 023°30'0 0.0
2017-Sep-20 15:23N 37°58' E 023°30'0 0.0
2017-Sep-20 14:53N 37°58' E 023°30'0 0.0
2017-Sep-20 13:56N 37°58' E 023°30'0 0.0
2017-Sep-20 13:26N 37°58' E 023°30'0 0.0
2017-Sep-20 12:56N 37°58' E 023°30'0 0.0
2017-Sep-20 12:29N 37°58' E 023°30'0 0.0
2017-Sep-20 11:59N 37°58' E 023°30'0 0.0
2017-Sep-20 11:26N 37°58' E 023°30'0 0.0
2017-Sep-20 10:56N 37°58' E 023°30'0 0.0
2017-Sep-20 10:26N 37°58' E 023°30'0 0.0
2017-Sep-20 09:50N 37°58' E 023°30'0 0.0
2017-Sep-20 08:29N 37°58' E 023°30'0 0.0
2017-Sep-20 07:53N 37°58' E 023°30'0 0.0
2017-Sep-20 07:29N 37°58' E 023°30'0 0.0
2017-Sep-20 06:59N 37°58' E 023°30'0 0.0
2017-Sep-20 06:23N 37°58' E 023°30'0 0.0
2017-Sep-20 04:08N 37°58' E 023°30'0 0.0
2017-Sep-20 03:56N 37°58' E 023°30'0 0.0
2017-Sep-20 01:44N 37°58' E 023°30'0 0.0
2017-Sep-20 01:26N 37°58' E 023°30'0 0.0
2017-Sep-20 00:56N 37°58' E 023°30'0 0.0
2017-Sep-20 00:26N 37°58' E 023°30'0 0.0
2017-Sep-20 00:00N 37°58' E 023°30'0 0.0
2017-Sep-19 23:30N 37°58' E 023°30'0 0.0
2017-Sep-19 23:00N 37°58' E 023°30'0 0.0
2017-Sep-19 22:30N 37°58' E 023°30'0 0.0
2017-Sep-19 22:00N 37°58' E 023°30'0 0.0
2017-Sep-19 21:30N 37°58' E 023°30'0 0.0
2017-Sep-19 20:54N 37°58' E 023°30'0 0.0
2017-Sep-19 20:30N 37°58' E 023°30'0 0.0
2017-Sep-19 20:00N 37°58' E 023°30'0 0.0
2017-Sep-19 19:24N 37°58' E 023°30'0 0.0
2017-Sep-19 19:00N 37°58' E 023°30'0 0.0
2017-Sep-19 18:30N 37°58' E 023°30'0 0.0
2017-Sep-19 18:00N 37°58' E 023°30'0 0.0
2017-Sep-19 17:30N 37°58' E 023°30'0 0.0
2017-Sep-19 17:00N 37°58' E 023°30'0 0.0
2017-Sep-19 16:30N 37°58' E 023°30'0 0.0
2017-Sep-19 16:00N 37°58' E 023°30'0 0.0
2017-Sep-19 15:30N 37°58' E 023°30'0 0.0
2017-Sep-19 15:00N 37°58' E 023°30'0 0.0
2017-Sep-19 14:30N 37°58' E 023°30'0 0.0
2017-Sep-19 13:54N 37°58' E 023°30'0 0.0
2017-Sep-19 13:27N 37°58' E 023°30'0 0.0
2017-Sep-19 13:00N 37°58' E 023°30'0 0.0
2017-Sep-19 12:30N 37°58' E 023°30'0 0.0
2017-Sep-19 12:00N 37°58' E 023°30'0 0.0
2017-Sep-19 11:30N 37°58' E 023°30'0 0.0
2017-Sep-19 10:51N 37°58' E 023°30'0 0.0
2017-Sep-19 10:24N 37°58' E 023°30'0 0.0
2017-Sep-19 09:57N 37°58' E 023°30'0 0.0
2017-Sep-19 09:21N 37°58' E 023°30'0 0.0
2017-Sep-19 08:51N 37°58' E 023°30'0 0.0
2017-Sep-19 08:30N 37°58' E 023°30'0 0.0
2017-Sep-19 06:54N 37°58' E 023°30'0 0.0
2017-Sep-19 06:27N 37°58' E 023°30'0 0.0
2017-Sep-19 05:21N 37°58' E 023°30'0 0.0
2017-Sep-19 04:57N 37°58' E 023°30'0 0.0
2017-Sep-19 04:21N 37°58' E 023°30'0 0.0
2017-Sep-19 03:45N 37°58' E 023°30'0 0.0
2017-Sep-19 03:15N 37°58' E 023°30'0 0.0
2017-Sep-19 02:57N 37°58' E 023°30'0 0.0
2017-Sep-19 02:27N 37°58' E 023°30'0 0.0
2017-Sep-19 01:27N 37°58' E 023°30'0 0.0
2017-Sep-19 00:57N 37°58' E 023°30'0 0.0
2017-Sep-19 00:30N 37°58' E 023°30'0 0.0
2017-Sep-19 00:00N 37°58' E 023°30'0 0.0
2017-Sep-18 23:24N 37°58' E 023°30'0 0.0
2017-Sep-18 23:00N 37°58' E 023°30'0 0.0
2017-Sep-18 22:30N 37°58' E 023°30'0 0.0
2017-Sep-18 21:51N 37°58' E 023°30'0 0.0
2017-Sep-18 21:30N 37°58' E 023°30'0 0.0
2017-Sep-18 21:00N 37°58' E 023°30'0 0.0
2017-Sep-18 20:30N 37°58' E 023°30'0 0.0
2017-Sep-18 20:00N 37°58' E 023°30'0 0.0
2017-Sep-18 19:24N 37°58' E 023°30'0 0.0
2017-Sep-18 19:00N 37°58' E 023°30'0 0.0
2017-Sep-18 18:30N 37°58' E 023°30'0 0.0
2017-Sep-18 17:57N 37°58' E 023°30'0 0.0
2017-Sep-18 17:30N 37°58' E 023°30'0 0.0
2017-Sep-18 17:00N 37°58' E 023°30'0 0.0
2017-Sep-18 16:30N 37°58' E 023°30'0 0.0
2017-Sep-18 16:00N 37°58' E 023°30'0 0.0
2017-Sep-18 15:21N 37°58' E 023°30'0 0.0
2017-Sep-18 15:00N 37°58' E 023°30'0 0.0
2017-Sep-18 14:30N 37°58' E 023°30'0 0.0
2017-Sep-18 14:00N 37°58' E 023°30'0 0.0
2017-Sep-18 13:30N 37°58' E 023°30'0 0.0
2017-Sep-18 13:00N 37°58' E 023°30'0 0.0
2017-Sep-18 12:30N 37°58' E 023°30'0 0.0
2017-Sep-18 11:54N 37°58' E 023°30'0 0.0
2017-Sep-18 11:21N 37°58' E 023°30'0 0.0
2017-Sep-18 11:00N 37°58' E 023°30'0 0.0
2017-Sep-18 10:30N 37°58' E 023°30'0 0.0
2017-Sep-18 09:58N 37°58' E 023°30'0 0.8
2017-Sep-18 09:30N 37°57' E 023°29'0 0.1
2017-Sep-18 06:05N 37°58' E 023°30'0 0.0
2017-Sep-18 05:47N 37°58' E 023°30'0 0.0
2017-Sep-18 05:23N 37°58' E 023°30'0 0.0
2017-Sep-18 04:23N 37°58' E 023°30'0 0.0
2017-Sep-18 03:59N 37°58' E 023°30'0 0.0
2017-Sep-18 03:29N 37°58' E 023°30'0 0.0
2017-Sep-18 02:59N 37°58' E 023°30'0 0.0
2017-Sep-18 02:29N 37°58' E 023°30'0 0.0
2017-Sep-18 01:59N 37°58' E 023°30'0 0.0
2017-Sep-18 01:23N 37°58' E 023°30'0 0.0
2017-Sep-18 00:59N 37°58' E 023°30'0 0.0
2017-Sep-18 00:29N 37°58' E 023°30'0 0.0
2017-Sep-17 23:59N 37°58' E 023°30'0 0.0
2017-Sep-17 19:17N 37°58' E 023°30'0 0.0
2017-Sep-17 18:53N 37°58' E 023°30'0 0.0
2017-Sep-17 18:23N 37°58' E 023°30'0 0.0
2017-Sep-17 17:59N 37°58' E 023°30'0 0.0
2017-Sep-17 13:53N 37°58' E 023°30'0 0.0
2017-Sep-16 17:35N 37°58' E 023°30'0 0.0
2017-Sep-16 17:14N 37°58' E 023°30'0 0.0
2017-Sep-16 05:35N 37°58' E 023°30'0 0.0
2017-Sep-16 05:26N 37°58' E 023°30'0 0.0
2017-Sep-16 01:41N 37°58' E 023°30'0 0.0
2017-Sep-16 01:26N 37°58' E 023°30'0 0.0
2017-Sep-16 00:59N 37°58' E 023°30'0 0.0
2017-Sep-16 00:29N 37°58' E 023°30'0 0.0
2017-Sep-15 23:59N 37°58' E 023°30'0 0.0
2017-Sep-15 17:08N 37°58' E 023°30'0 0.0
2017-Sep-15 16:53N 37°58' E 023°30'0 0.0
2017-Sep-15 15:50N 37°58' E 023°30'0 0.0
2017-Sep-15 15:26N 37°58' E 023°30'0 0.0
2017-Sep-15 14:56N 37°58' E 023°30'0 0.0
2017-Sep-15 14:26N 37°58' E 023°30'0 0.0
2017-Sep-15 12:35N 37°58' E 023°30'0 0.0
2017-Sep-15 11:23N 37°58' E 023°30'0 0.0
2017-Sep-15 10:59N 37°58' E 023°30'0 0.0
2017-Sep-15 10:17N 37°58' E 023°30'0 0.0
2017-Sep-15 09:53N 37°58' E 023°30'0 0.0
2017-Sep-15 08:35N 37°58' E 023°30'0 0.0
2017-Sep-15 08:29N 37°58' E 023°30'0 0.0
2017-Sep-15 07:59N 37°58' E 023°30'0 0.0
2017-Sep-15 07:26N 37°58' E 023°30'0 0.0
2017-Sep-15 06:59N 37°58' E 023°30'0 0.0
2017-Sep-15 06:20N 37°58' E 023°30'0 0.0
2017-Sep-15 05:59N 37°58' E 023°30'0 0.0
2017-Sep-15 05:23N 37°58' E 023°30'0 0.0
2017-Sep-15 04:14N 37°58' E 023°30'0 0.0
2017-Sep-15 03:59N 37°58' E 023°30'0 0.0
2017-Sep-15 03:23N 37°58' E 023°30'0 0.0
2017-Sep-15 02:59N 37°58' E 023°30'0 0.0
2017-Sep-15 02:29N 37°58' E 023°30'0 0.0
2017-Sep-15 01:59N 37°58' E 023°30'0 0.0
2017-Sep-15 01:29N 37°58' E 023°30'0 0.0
2017-Sep-15 00:53N 37°58' E 023°30'0 0.0
2017-Sep-15 00:26N 37°58' E 023°30'0 0.0
2017-Sep-14 23:44N 37°58' E 023°30'0 0.0
2017-Sep-14 23:23N 37°58' E 023°30'0 0.0
2017-Sep-14 22:56N 37°58' E 023°30'0 0.0
2017-Sep-14 22:23N 37°58' E 023°30'0 0.0
2017-Sep-14 21:53N 37°58' E 023°30'0 0.0
2017-Sep-14 21:20N 37°58' E 023°30'0 0.0
2017-Sep-14 20:50N 37°58' E 023°30'0 0.0
2017-Sep-14 20:29N 37°58' E 023°30'0 0.0
2017-Sep-14 19:53N 37°58' E 023°30'0 0.0
2017-Sep-14 19:29N 37°58' E 023°30'0 0.0
2017-Sep-14 18:38N 37°58' E 023°30'0 0.0
2017-Sep-14 18:29N 37°58' E 023°30'0 0.0
2017-Sep-14 17:59N 37°58' E 023°30'0 0.0
2017-Sep-14 17:02N 37°58' E 023°30'0 0.0
2017-Sep-14 16:44N 37°58' E 023°30'0 0.0
2017-Sep-14 16:23N 37°58' E 023°30'0 0.0
2017-Sep-14 15:56N 37°58' E 023°30'0 0.0
2017-Sep-14 15:05N 37°58' E 023°30'0 0.0
2017-Sep-14 14:53N 37°58' E 023°30'0 0.0
2017-Sep-14 14:17N 37°58' E 023°30'0 0.0
2017-Sep-14 13:59N 37°58' E 023°30'0 0.0
2017-Sep-14 13:23N 37°58' E 023°30'0 0.0
2017-Sep-14 12:59N 37°58' E 023°30'0 0.0
2017-Sep-14 12:26N 37°58' E 023°30'0 0.0
2017-Sep-14 11:35N 37°58' E 023°30'0 0.0
2017-Sep-14 10:47N 37°58' E 023°30'0 0.0
2017-Sep-14 10:23N 37°58' E 023°30'0 0.0
2017-Sep-14 09:59N 37°58' E 023°30'  

Dump ship's entire track history